sensor_id;sensor_type;location;lat;lon;timestamp;temperature;humidity
8953;DHT22;4511;50.890;8.054;2024-02-04T00:00:15;8.90;99.90
8953;DHT22;4511;50.890;8.054;2024-02-04T00:02:43;8.90;99.90
8953;DHT22;4511;50.890;8.054;2024-02-04T00:05:11;8.90;99.90
8953;DHT22;4511;50.890;8.054;2024-02-04T00:07:38;8.90;99.90
8953;DHT22;4511;50.890;8.054;2024-02-04T00:10:05;8.80;99.90
8953;DHT22;4511;50.890;8.054;2024-02-04T00:12:32;8.80;99.90
8953;DHT22;4511;50.890;8.054;2024-02-04T00:14:59;8.80;99.90
8953;DHT22;4511;50.890;8.054;2024-02-04T00:17:25;8.80;99.90
8953;DHT22;4511;50.890;8.054;2024-02-04T00:19:55;8.80;99.90
8953;DHT22;4511;50.890;8.054;2024-02-04T00:22:23;8.80;99.90
8953;DHT22;4511;50.890;8.054;2024-02-04T00:24:50;8.80;99.90
8953;DHT22;4511;50.890;8.054;2024-02-04T00:27:17;8.80;99.90
8953;DHT22;4511;50.890;8.054;2024-02-04T00:29:44;8.80;99.90
8953;DHT22;4511;50.890;8.054;2024-02-04T00:32:10;8.80;99.90
8953;DHT22;4511;50.890;8.054;2024-02-04T00:34:37;8.80;99.90
8953;DHT22;4511;50.890;8.054;2024-02-04T00:37:04;8.80;99.90
8953;DHT22;4511;50.890;8.054;2024-02-04T00:39:32;8.80;99.90
8953;DHT22;4511;50.890;8.054;2024-02-04T00:41:59;8.80;99.90
8953;DHT22;4511;50.890;8.054;2024-02-04T00:44:26;8.80;99.90
8953;DHT22;4511;50.890;8.054;2024-02-04T00:46:52;8.70;99.90
8953;DHT22;4511;50.890;8.054;2024-02-04T00:49:19;8.80;99.90
8953;DHT22;4511;50.890;8.054;2024-02-04T00:51:46;8.80;99.90
8953;DHT22;4511;50.890;8.054;2024-02-04T00:54:12;8.80;99.90
8953;DHT22;4511;50.890;8.054;2024-02-04T00:56:40;8.70;99.90
8953;DHT22;4511;50.890;8.054;2024-02-04T00:59:07;8.80;99.90
8953;DHT22;4511;50.890;8.054;2024-02-04T01:01:34;8.70;99.90
8953;DHT22;4511;50.890;8.054;2024-02-04T01:04:00;8.70;99.90
8953;DHT22;4511;50.890;8.054;2024-02-04T01:06:27;8.70;99.90
8953;DHT22;4511;50.890;8.054;2024-02-04T01:08:55;8.70;99.90
8953;DHT22;4511;50.890;8.054;2024-02-04T01:11:22;8.70;99.90
8953;DHT22;4511;50.890;8.054;2024-02-04T01:13:50;8.70;99.90
8953;DHT22;4511;50.890;8.054;2024-02-04T01:16:17;8.70;99.90
8953;DHT22;4511;50.890;8.054;2024-02-04T01:18:43;8.70;99.90
8953;DHT22;4511;50.890;8.054;2024-02-04T01:21:10;8.70;99.90
8953;DHT22;4511;50.890;8.054;2024-02-04T01:23:37;8.70;99.90
8953;DHT22;4511;50.890;8.054;2024-02-04T01:26:04;8.70;99.90
8953;DHT22;4511;50.890;8.054;2024-02-04T01:28:31;8.60;99.90
8953;DHT22;4511;50.890;8.054;2024-02-04T01:30:59;8.70;99.90
8953;DHT22;4511;50.890;8.054;2024-02-04T01:33:25;8.70;99.90
8953;DHT22;4511;50.890;8.054;2024-02-04T01:35:52;8.70;99.90
8953;DHT22;4511;50.890;8.054;2024-02-04T01:38:19;8.70;99.90
8953;DHT22;4511;50.890;8.054;2024-02-04T01:40:45;8.70;99.90
8953;DHT22;4511;50.890;8.054;2024-02-04T01:43:12;8.60;99.90
8953;DHT22;4511;50.890;8.054;2024-02-04T01:45:39;8.70;99.90
8953;DHT22;4511;50.890;8.054;2024-02-04T01:48:08;8.60;99.90
8953;DHT22;4511;50.890;8.054;2024-02-04T01:50:35;8.60;99.90
8953;DHT22;4511;50.890;8.054;2024-02-04T01:53:01;8.50;99.90
8953;DHT22;4511;50.890;8.054;2024-02-04T01:55:28;8.60;99.90
8953;DHT22;4511;50.890;8.054;2024-02-04T01:57:55;8.60;99.90
8953;DHT22;4511;50.890;8.054;2024-02-04T02:00:22;8.60;99.90
8953;DHT22;4511;50.890;8.054;2024-02-04T02:02:49;8.60;99.90
8953;DHT22;4511;50.890;8.054;2024-02-04T02:05:19;8.60;99.90
8953;DHT22;4511;50.890;8.054;2024-02-04T02:07:45;8.50;99.90
8953;DHT22;4511;50.890;8.054;2024-02-04T02:10:16;8.60;99.90
8953;DHT22;4511;50.890;8.054;2024-02-04T02:12:47;8.50;99.90
8953;DHT22;4511;50.890;8.054;2024-02-04T02:15:17;8.60;99.90
8953;DHT22;4511;50.890;8.054;2024-02-04T02:17:50;8.50;99.90
8953;DHT22;4511;50.890;8.054;2024-02-04T02:20:23;8.50;99.90
8953;DHT22;4511;50.890;8.054;2024-02-04T02:22:57;8.50;99.90
8953;DHT22;4511;50.890;8.054;2024-02-04T02:26:07;8.50;99.90
8953;DHT22;4511;50.890;8.054;2024-02-04T02:28:34;8.50;99.90
8953;DHT22;4511;50.890;8.054;2024-02-04T02:31:01;8.50;99.90
8953;DHT22;4511;50.890;8.054;2024-02-04T02:33:27;8.50;99.90
8953;DHT22;4511;50.890;8.054;2024-02-04T02:35:57;8.50;99.90
8953;DHT22;4511;50.890;8.054;2024-02-04T02:38:32;8.50;99.90
8953;DHT22;4511;50.890;8.054;2024-02-04T02:41:04;8.50;99.90
8953;DHT22;4511;50.890;8.054;2024-02-04T02:43:34;8.50;99.90
8953;DHT22;4511;50.890;8.054;2024-02-04T02:46:02;8.50;99.90
8953;DHT22;4511;50.890;8.054;2024-02-04T02:48:29;8.50;99.90
8953;DHT22;4511;50.890;8.054;2024-02-04T02:50:56;8.50;99.90
8953;DHT22;4511;50.890;8.054;2024-02-04T02:53:23;8.50;99.90
8953;DHT22;4511;50.890;8.054;2024-02-04T02:55:50;8.50;99.90
8953;DHT22;4511;50.890;8.054;2024-02-04T02:58:17;8.50;99.90
8953;DHT22;4511;50.890;8.054;2024-02-04T03:00:45;8.50;99.90
8953;DHT22;4511;50.890;8.054;2024-02-04T03:03:12;8.50;99.90
8953;DHT22;4511;50.890;8.054;2024-02-04T03:05:38;8.50;99.90
8953;DHT22;4511;50.890;8.054;2024-02-04T03:08:06;8.50;99.90
8953;DHT22;4511;50.890;8.054;2024-02-04T03:10:32;8.50;99.90
8953;DHT22;4511;50.890;8.054;2024-02-04T03:12:59;8.50;99.90
8953;DHT22;4511;50.890;8.054;2024-02-04T03:15:26;8.50;99.90
8953;DHT22;4511;50.890;8.054;2024-02-04T03:17:54;8.50;99.90
8953;DHT22;4511;50.890;8.054;2024-02-04T03:20:21;8.50;99.90
8953;DHT22;4511;50.890;8.054;2024-02-04T03:22:49;8.50;99.90
8953;DHT22;4511;50.890;8.054;2024-02-04T03:25:15;8.50;99.90
8953;DHT22;4511;50.890;8.054;2024-02-04T03:27:42;8.50;99.90
8953;DHT22;4511;50.890;8.054;2024-02-04T03:30:10;8.50;99.90
8953;DHT22;4511;50.890;8.054;2024-02-04T03:32:36;8.50;99.90
8953;DHT22;4511;50.890;8.054;2024-02-04T03:35:05;8.50;99.90
8953;DHT22;4511;50.890;8.054;2024-02-04T03:37:32;8.50;99.90
8953;DHT22;4511;50.890;8.054;2024-02-04T03:39:59;8.50;99.90
8953;DHT22;4511;50.890;8.054;2024-02-04T03:42:25;8.50;99.90
8953;DHT22;4511;50.890;8.054;2024-02-04T03:44:52;8.50;99.90
8953;DHT22;4511;50.890;8.054;2024-02-04T03:47:19;8.50;99.90
8953;DHT22;4511;50.890;8.054;2024-02-04T03:49:45;8.60;99.90
8953;DHT22;4511;50.890;8.054;2024-02-04T03:52:13;8.50;99.90
8953;DHT22;4511;50.890;8.054;2024-02-04T03:54:40;8.60;99.90
8953;DHT22;4511;50.890;8.054;2024-02-04T03:57:07;8.50;99.90
8953;DHT22;4511;50.890;8.054;2024-02-04T03:59:33;8.50;99.90
8953;DHT22;4511;50.890;8.054;2024-02-04T04:02:00;8.50;99.90
8953;DHT22;4511;50.890;8.054;2024-02-04T04:04:27;8.50;99.90
8953;DHT22;4511;50.890;8.054;2024-02-04T04:06:53;8.60;99.90
8953;DHT22;4511;50.890;8.054;2024-02-04T04:09:21;8.60;99.90
8953;DHT22;4511;50.890;8.054;2024-02-04T04:11:48;8.60;99.90
8953;DHT22;4511;50.890;8.054;2024-02-04T04:14:15;8.50;99.90
8953;DHT22;4511;50.890;8.054;2024-02-04T04:16:41;8.60;99.90
8953;DHT22;4511;50.890;8.054;2024-02-04T04:19:08;8.60;99.90
8953;DHT22;4511;50.890;8.054;2024-02-04T04:21:35;8.60;99.90
8953;DHT22;4511;50.890;8.054;2024-02-04T04:24:03;8.60;99.90
8953;DHT22;4511;50.890;8.054;2024-02-04T04:26:31;8.60;99.90
8953;DHT22;4511;50.890;8.054;2024-02-04T04:28:59;8.60;99.90
8953;DHT22;4511;50.890;8.054;2024-02-04T04:31:25;8.60;99.90
8953;DHT22;4511;50.890;8.054;2024-02-04T04:33:52;8.60;99.90
8953;DHT22;4511;50.890;8.054;2024-02-04T04:36:19;8.70;99.90
8953;DHT22;4511;50.890;8.054;2024-02-04T04:38:45;8.60;99.90
8953;DHT22;4511;50.890;8.054;2024-02-04T04:41:15;8.70;99.90
8953;DHT22;4511;50.890;8.054;2024-02-04T04:43:43;8.60;99.90
8953;DHT22;4511;50.890;8.054;2024-02-04T04:46:10;8.70;99.90
8953;DHT22;4511;50.890;8.054;2024-02-04T04:48:36;8.70;99.90
8953;DHT22;4511;50.890;8.054;2024-02-04T04:51:03;8.70;99.90
8953;DHT22;4511;50.890;8.054;2024-02-04T04:53:30;8.70;99.90
8953;DHT22;4511;50.890;8.054;2024-02-04T04:55:57;8.70;99.90
8953;DHT22;4511;50.890;8.054;2024-02-04T04:58:23;8.70;99.90
8953;DHT22;4511;50.890;8.054;2024-02-04T05:00:51;8.70;99.90
8953;DHT22;4511;50.890;8.054;2024-02-04T05:03:18;8.70;99.90
8953;DHT22;4511;50.890;8.054;2024-02-04T05:05:45;8.70;99.90
8953;DHT22;4511;50.890;8.054;2024-02-04T05:08:14;8.70;99.90
8953;DHT22;4511;50.890;8.054;2024-02-04T05:10:41;8.80;99.90
8953;DHT22;4511;50.890;8.054;2024-02-04T05:13:08;8.80;99.90
8953;DHT22;4511;50.890;8.054;2024-02-04T05:15:34;8.80;99.90
8953;DHT22;4511;50.890;8.054;2024-02-04T05:18:02;8.80;99.90
8953;DHT22;4511;50.890;8.054;2024-02-04T05:20:30;8.90;99.90
8953;DHT22;4511;50.890;8.054;2024-02-04T05:22:57;8.90;99.90
8953;DHT22;4511;50.890;8.054;2024-02-04T05:25:24;8.90;99.90
8953;DHT22;4511;50.890;8.054;2024-02-04T05:27:51;8.90;99.90
8953;DHT22;4511;50.890;8.054;2024-02-04T05:30:17;8.90;99.90
8953;DHT22;4511;50.890;8.054;2024-02-04T05:32:44;8.90;99.90
8953;DHT22;4511;50.890;8.054;2024-02-04T05:35:12;8.90;99.90
8953;DHT22;4511;50.890;8.054;2024-02-04T05:37:39;8.90;99.90
8953;DHT22;4511;50.890;8.054;2024-02-04T05:40:07;9.00;99.90
8953;DHT22;4511;50.890;8.054;2024-02-04T05:42:33;9.00;99.90
8953;DHT22;4511;50.890;8.054;2024-02-04T05:45:01;9.00;99.90
8953;DHT22;4511;50.890;8.054;2024-02-04T05:47:27;9.00;99.90
8953;DHT22;4511;50.890;8.054;2024-02-04T05:49:54;9.00;99.90
8953;DHT22;4511;50.890;8.054;2024-02-04T05:52:22;9.00;99.90
8953;DHT22;4511;50.890;8.054;2024-02-04T05:54:49;9.00;99.90
8953;DHT22;4511;50.890;8.054;2024-02-04T05:57:16;9.00;99.90
8953;DHT22;4511;50.890;8.054;2024-02-04T05:59:42;8.90;99.90
8953;DHT22;4511;50.890;8.054;2024-02-04T06:02:09;8.90;99.90
8953;DHT22;4511;50.890;8.054;2024-02-04T06:04:36;8.90;99.90
8953;DHT22;4511;50.890;8.054;2024-02-04T06:07:05;8.90;99.90
8953;DHT22;4511;50.890;8.054;2024-02-04T06:09:33;8.90;99.90
8953;DHT22;4511;50.890;8.054;2024-02-04T06:12:00;9.00;99.90
8953;DHT22;4511;50.890;8.054;2024-02-04T06:14:26;9.00;99.90
8953;DHT22;4511;50.890;8.054;2024-02-04T06:16:53;8.90;99.90
8953;DHT22;4511;50.890;8.054;2024-02-04T06:19:20;9.00;99.90
8953;DHT22;4511;50.890;8.054;2024-02-04T06:21:46;8.90;99.90
8953;DHT22;4511;50.890;8.054;2024-02-04T06:24:13;8.90;99.90
8953;DHT22;4511;50.890;8.054;2024-02-04T06:26:41;8.90;99.90
8953;DHT22;4511;50.890;8.054;2024-02-04T06:29:08;8.90;99.90
8953;DHT22;4511;50.890;8.054;2024-02-04T06:31:34;8.90;99.90
8953;DHT22;4511;50.890;8.054;2024-02-04T06:34:01;8.90;99.90
8953;DHT22;4511;50.890;8.054;2024-02-04T06:36:28;8.90;99.90
8953;DHT22;4511;50.890;8.054;2024-02-04T06:38:54;8.90;99.90
8953;DHT22;4511;50.890;8.054;2024-02-04T06:41:21;8.90;99.90
8953;DHT22;4511;50.890;8.054;2024-02-04T06:43:49;8.90;99.90
8953;DHT22;4511;50.890;8.054;2024-02-04T06:46:24;8.90;99.90
8953;DHT22;4511;50.890;8.054;2024-02-04T06:48:51;9.00;99.90
8953;DHT22;4511;50.890;8.054;2024-02-04T06:51:18;8.90;99.90
8953;DHT22;4511;50.890;8.054;2024-02-04T06:53:44;8.90;99.90
8953;DHT22;4511;50.890;8.054;2024-02-04T06:56:11;8.90;99.90
8953;DHT22;4511;50.890;8.054;2024-02-04T06:58:38;8.90;99.90
8953;DHT22;4511;50.890;8.054;2024-02-04T07:01:06;8.90;99.90
8953;DHT22;4511;50.890;8.054;2024-02-04T07:03:32;8.90;99.90
8953;DHT22;4511;50.890;8.054;2024-02-04T07:06:00;8.80;99.90
8953;DHT22;4511;50.890;8.054;2024-02-04T07:08:27;8.90;99.90
8953;DHT22;4511;50.890;8.054;2024-02-04T07:10:53;8.80;99.90
8953;DHT22;4511;50.890;8.054;2024-02-04T07:13:20;8.80;99.90
8953;DHT22;4511;50.890;8.054;2024-02-04T07:15:47;8.80;99.90
8953;DHT22;4511;50.890;8.054;2024-02-04T07:18:15;8.90;99.90
8953;DHT22;4511;50.890;8.054;2024-02-04T07:20:43;8.80;99.90
8953;DHT22;4511;50.890;8.054;2024-02-04T07:23:10;8.80;99.90
8953;DHT22;4511;50.890;8.054;2024-02-04T07:25:36;8.80;99.90
8953;DHT22;4511;50.890;8.054;2024-02-04T07:28:03;8.80;99.90
8953;DHT22;4511;50.890;8.054;2024-02-04T07:30:30;8.90;99.90
8953;DHT22;4511;50.890;8.054;2024-02-04T07:32:57;8.80;99.90
8953;DHT22;4511;50.890;8.054;2024-02-04T07:35:25;8.90;99.90
8953;DHT22;4511;50.890;8.054;2024-02-04T07:37:51;8.90;99.90
8953;DHT22;4511;50.890;8.054;2024-02-04T07:40:18;8.90;99.90
8953;DHT22;4511;50.890;8.054;2024-02-04T07:42:45;8.90;99.90
8953;DHT22;4511;50.890;8.054;2024-02-04T07:45:12;8.90;99.90
8953;DHT22;4511;50.890;8.054;2024-02-04T07:47:38;8.90;99.90
8953;DHT22;4511;50.890;8.054;2024-02-04T07:50:06;8.90;99.90
8953;DHT22;4511;50.890;8.054;2024-02-04T07:52:34;8.90;99.90
8953;DHT22;4511;50.890;8.054;2024-02-04T07:55:01;9.00;99.90
8953;DHT22;4511;50.890;8.054;2024-02-04T07:57:28;9.00;99.90
8953;DHT22;4511;50.890;8.054;2024-02-04T07:59:54;8.90;99.90
8953;DHT22;4511;50.890;8.054;2024-02-04T08:02:21;8.90;99.90
8953;DHT22;4511;50.890;8.054;2024-02-04T08:04:48;8.90;99.90
8953;DHT22;4511;50.890;8.054;2024-02-04T08:07:14;8.90;99.90
8953;DHT22;4511;50.890;8.054;2024-02-04T08:09:44;8.90;99.90
8953;DHT22;4511;50.890;8.054;2024-02-04T08:12:11;8.90;99.90
8953;DHT22;4511;50.890;8.054;2024-02-04T08:14:38;9.00;99.90
8953;DHT22;4511;50.890;8.054;2024-02-04T08:17:04;9.00;99.90
8953;DHT22;4511;50.890;8.054;2024-02-04T08:19:30;9.00;99.90
8953;DHT22;4511;50.890;8.054;2024-02-04T08:21:57;9.00;99.90
8953;DHT22;4511;50.890;8.054;2024-02-04T08:24:24;9.00;99.90
8953;DHT22;4511;50.890;8.054;2024-02-04T08:26:52;9.00;99.90
8953;DHT22;4511;50.890;8.054;2024-02-04T08:29:19;9.00;99.90
8953;DHT22;4511;50.890;8.054;2024-02-04T08:31:46;9.00;99.90
8953;DHT22;4511;50.890;8.054;2024-02-04T08:34:13;9.00;99.90
8953;DHT22;4511;50.890;8.054;2024-02-04T08:36:39;9.00;99.90
8953;DHT22;4511;50.890;8.054;2024-02-04T08:39:06;9.10;99.90
8953;DHT22;4511;50.890;8.054;2024-02-04T08:41:33;9.10;99.90
8953;DHT22;4511;50.890;8.054;2024-02-04T08:44:01;9.10;99.90
8953;DHT22;4511;50.890;8.054;2024-02-04T08:46:28;9.10;99.90
8953;DHT22;4511;50.890;8.054;2024-02-04T08:48:54;9.10;99.90
8953;DHT22;4511;50.890;8.054;2024-02-04T08:51:21;9.10;99.90
8953;DHT22;4511;50.890;8.054;2024-02-04T08:53:48;9.10;99.90
8953;DHT22;4511;50.890;8.054;2024-02-04T08:56:15;9.10;99.90
8953;DHT22;4511;50.890;8.054;2024-02-04T08:58:41;9.10;99.90
8953;DHT22;4511;50.890;8.054;2024-02-04T09:01:09;9.00;99.90
8953;DHT22;4511;50.890;8.054;2024-02-04T09:03:36;9.10;99.90
8953;DHT22;4511;50.890;8.054;2024-02-04T09:06:03;9.00;99.90
8953;DHT22;4511;50.890;8.054;2024-02-04T09:08:30;9.00;99.90
8953;DHT22;4511;50.890;8.054;2024-02-04T09:10:56;9.10;99.90
8953;DHT22;4511;50.890;8.054;2024-02-04T09:13:23;9.10;99.90
8953;DHT22;4511;50.890;8.054;2024-02-04T09:15:50;9.10;99.90
8953;DHT22;4511;50.890;8.054;2024-02-04T09:18:19;9.10;99.90
8953;DHT22;4511;50.890;8.054;2024-02-04T09:20:46;9.10;99.90
8953;DHT22;4511;50.890;8.054;2024-02-04T09:23:13;9.10;99.90
8953;DHT22;4511;50.890;8.054;2024-02-04T09:25:40;9.10;99.90
8953;DHT22;4511;50.890;8.054;2024-02-04T09:28:07;9.10;99.90
8953;DHT22;4511;50.890;8.054;2024-02-04T09:30:33;9.10;99.90
8953;DHT22;4511;50.890;8.054;2024-02-04T09:33:00;9.10;99.90
8953;DHT22;4511;50.890;8.054;2024-02-04T09:35:28;9.10;99.90
8953;DHT22;4511;50.890;8.054;2024-02-04T09:37:55;9.10;99.90
8953;DHT22;4511;50.890;8.054;2024-02-04T09:40:22;9.20;99.90
8953;DHT22;4511;50.890;8.054;2024-02-04T09:42:48;9.20;99.90
8953;DHT22;4511;50.890;8.054;2024-02-04T09:45:17;9.20;99.90
8953;DHT22;4511;50.890;8.054;2024-02-04T09:47:45;9.20;99.90
8953;DHT22;4511;50.890;8.054;2024-02-04T09:50:12;9.20;99.90
8953;DHT22;4511;50.890;8.054;2024-02-04T09:52:40;9.30;99.90
8953;DHT22;4511;50.890;8.054;2024-02-04T09:55:10;9.30;99.90
8953;DHT22;4511;50.890;8.054;2024-02-04T09:57:39;9.30;99.90
8953;DHT22;4511;50.890;8.054;2024-02-04T10:00:07;9.30;99.90
8953;DHT22;4511;50.890;8.054;2024-02-04T10:02:36;9.30;99.90
8953;DHT22;4511;50.890;8.054;2024-02-04T10:05:03;9.30;99.90
8953;DHT22;4511;50.890;8.054;2024-02-04T10:07:30;9.30;99.90
8953;DHT22;4511;50.890;8.054;2024-02-04T10:09:58;9.30;99.90
8953;DHT22;4511;50.890;8.054;2024-02-04T10:12:25;9.30;99.90
8953;DHT22;4511;50.890;8.054;2024-02-04T10:14:51;9.30;99.90
8953;DHT22;4511;50.890;8.054;2024-02-04T10:17:18;9.30;99.90
8953;DHT22;4511;50.890;8.054;2024-02-04T10:19:47;9.30;99.90
8953;DHT22;4511;50.890;8.054;2024-02-04T10:22:13;9.30;99.90
8953;DHT22;4511;50.890;8.054;2024-02-04T10:24:42;9.30;99.90
8953;DHT22;4511;50.890;8.054;2024-02-04T10:27:11;9.40;99.90
8953;DHT22;4511;50.890;8.054;2024-02-04T10:29:38;9.40;99.90
8953;DHT22;4511;50.890;8.054;2024-02-04T10:32:05;9.30;99.90
8953;DHT22;4511;50.890;8.054;2024-02-04T10:34:36;9.40;99.90
8953;DHT22;4511;50.890;8.054;2024-02-04T10:37:03;9.40;99.90
8953;DHT22;4511;50.890;8.054;2024-02-04T10:39:30;9.40;99.90
8953;DHT22;4511;50.890;8.054;2024-02-04T10:42:02;9.30;99.90
8953;DHT22;4511;50.890;8.054;2024-02-04T10:44:35;9.30;99.90
8953;DHT22;4511;50.890;8.054;2024-02-04T10:47:05;9.30;99.90
8953;DHT22;4511;50.890;8.054;2024-02-04T10:49:34;9.30;99.90
8953;DHT22;4511;50.890;8.054;2024-02-04T10:52:05;9.30;99.90
8953;DHT22;4511;50.890;8.054;2024-02-04T10:54:33;9.40;99.90
8953;DHT22;4511;50.890;8.054;2024-02-04T10:57:05;9.40;99.90
8953;DHT22;4511;50.890;8.054;2024-02-04T10:59:33;9.40;99.90
8953;DHT22;4511;50.890;8.054;2024-02-04T11:02:00;9.50;99.90
8953;DHT22;4511;50.890;8.054;2024-02-04T11:04:27;9.50;99.90
8953;DHT22;4511;50.890;8.054;2024-02-04T11:06:56;9.50;99.90
8953;DHT22;4511;50.890;8.054;2024-02-04T11:09:23;9.50;99.90
8953;DHT22;4511;50.890;8.054;2024-02-04T11:11:51;9.50;99.90
8953;DHT22;4511;50.890;8.054;2024-02-04T11:14:21;9.40;99.90
8953;DHT22;4511;50.890;8.054;2024-02-04T11:17:06;9.40;99.90
8953;DHT22;4511;50.890;8.054;2024-02-04T11:19:44;9.50;99.90
8953;DHT22;4511;50.890;8.054;2024-02-04T11:22:34;9.50;99.90
8953;DHT22;4511;50.890;8.054;2024-02-04T11:25:22;9.50;99.90
8953;DHT22;4511;50.890;8.054;2024-02-04T11:27:55;9.50;99.90
8953;DHT22;4511;50.890;8.054;2024-02-04T11:30:22;9.50;99.90
8953;DHT22;4511;50.890;8.054;2024-02-04T11:32:50;9.60;99.90
8953;DHT22;4511;50.890;8.054;2024-02-04T11:35:17;9.60;99.90
8953;DHT22;4511;50.890;8.054;2024-02-04T11:37:46;9.60;99.90
8953;DHT22;4511;50.890;8.054;2024-02-04T11:40:14;9.60;99.90
8953;DHT22;4511;50.890;8.054;2024-02-04T11:42:42;9.70;99.90
8953;DHT22;4511;50.890;8.054;2024-02-04T11:45:10;9.70;99.90
8953;DHT22;4511;50.890;8.054;2024-02-04T11:47:38;9.70;99.90
8953;DHT22;4511;50.890;8.054;2024-02-04T11:50:07;9.60;99.90
8953;DHT22;4511;50.890;8.054;2024-02-04T11:52:35;9.70;99.90
8953;DHT22;4511;50.890;8.054;2024-02-04T11:55:02;9.70;99.90
8953;DHT22;4511;50.890;8.054;2024-02-04T11:57:32;9.70;99.90
8953;DHT22;4511;50.890;8.054;2024-02-04T12:00:00;9.70;99.90
8953;DHT22;4511;50.890;8.054;2024-02-04T12:02:27;9.60;99.90
8953;DHT22;4511;50.890;8.054;2024-02-04T12:04:54;9.60;99.90
8953;DHT22;4511;50.890;8.054;2024-02-04T12:07:23;9.60;99.90
8953;DHT22;4511;50.890;8.054;2024-02-04T12:09:50;9.60;99.90
8953;DHT22;4511;50.890;8.054;2024-02-04T12:12:17;9.70;99.90
8953;DHT22;4511;50.890;8.054;2024-02-04T12:14:45;9.70;99.90
8953;DHT22;4511;50.890;8.054;2024-02-04T12:17:12;9.70;99.90
8953;DHT22;4511;50.890;8.054;2024-02-04T12:19:39;9.70;99.90
8953;DHT22;4511;50.890;8.054;2024-02-04T12:22:06;9.60;99.90
8953;DHT22;4511;50.890;8.054;2024-02-04T12:24:36;9.60;99.90
8953;DHT22;4511;50.890;8.054;2024-02-04T12:27:04;9.60;99.90
8953;DHT22;4511;50.890;8.054;2024-02-04T12:29:31;9.60;99.90
8953;DHT22;4511;50.890;8.054;2024-02-04T12:31:59;9.60;99.90
8953;DHT22;4511;50.890;8.054;2024-02-04T12:34:26;9.60;99.90
8953;DHT22;4511;50.890;8.054;2024-02-04T12:36:58;9.60;99.90
8953;DHT22;4511;50.890;8.054;2024-02-04T12:39:25;9.60;99.90
8953;DHT22;4511;50.890;8.054;2024-02-04T12:41:53;9.60;99.90
8953;DHT22;4511;50.890;8.054;2024-02-04T12:44:20;9.60;99.90
8953;DHT22;4511;50.890;8.054;2024-02-04T12:46:50;9.60;99.90
8953;DHT22;4511;50.890;8.054;2024-02-04T12:49:19;9.60;99.90
8953;DHT22;4511;50.890;8.054;2024-02-04T12:51:46;9.60;99.90
8953;DHT22;4511;50.890;8.054;2024-02-04T12:54:13;9.60;99.90
8953;DHT22;4511;50.890;8.054;2024-02-04T12:56:42;9.60;99.90
8953;DHT22;4511;50.890;8.054;2024-02-04T12:59:11;9.60;99.90
8953;DHT22;4511;50.890;8.054;2024-02-04T13:01:38;9.50;99.90
8953;DHT22;4511;50.890;8.054;2024-02-04T13:04:05;9.60;99.90
8953;DHT22;4511;50.890;8.054;2024-02-04T13:06:37;9.60;99.90
8953;DHT22;4511;50.890;8.054;2024-02-04T13:09:04;9.50;99.90
8953;DHT22;4511;50.890;8.054;2024-02-04T13:11:32;9.50;99.90
8953;DHT22;4511;50.890;8.054;2024-02-04T13:13:59;9.50;99.90
8953;DHT22;4511;50.890;8.054;2024-02-04T13:16:27;9.60;99.90
8953;DHT22;4511;50.890;8.054;2024-02-04T13:18:55;9.60;99.90
8953;DHT22;4511;50.890;8.054;2024-02-04T13:21:22;9.50;99.90
8953;DHT22;4511;50.890;8.054;2024-02-04T13:23:50;9.50;99.90
8953;DHT22;4511;50.890;8.054;2024-02-04T13:26:17;9.50;99.90
8953;DHT22;4511;50.890;8.054;2024-02-04T13:28:43;9.50;99.90
8953;DHT22;4511;50.890;8.054;2024-02-04T13:31:10;9.50;99.90
8953;DHT22;4511;50.890;8.054;2024-02-04T13:33:39;9.50;99.90
8953;DHT22;4511;50.890;8.054;2024-02-04T13:36:07;9.50;99.90
8953;DHT22;4511;50.890;8.054;2024-02-04T13:38:34;9.50;99.90
8953;DHT22;4511;50.890;8.054;2024-02-04T13:41:01;9.50;99.90
8953;DHT22;4511;50.890;8.054;2024-02-04T13:43:30;9.50;99.90
8953;DHT22;4511;50.890;8.054;2024-02-04T13:45:57;9.50;99.90
8953;DHT22;4511;50.890;8.054;2024-02-04T13:48:23;9.50;99.90
8953;DHT22;4511;50.890;8.054;2024-02-04T13:50:52;9.50;99.90
8953;DHT22;4511;50.890;8.054;2024-02-04T13:53:20;9.50;99.90
8953;DHT22;4511;50.890;8.054;2024-02-04T13:55:47;9.50;99.90
8953;DHT22;4511;50.890;8.054;2024-02-04T13:58:14;9.50;99.90
8953;DHT22;4511;50.890;8.054;2024-02-04T14:00:41;9.50;99.90
8953;DHT22;4511;50.890;8.054;2024-02-04T14:03:08;9.40;99.90
8953;DHT22;4511;50.890;8.054;2024-02-04T14:05:35;9.40;99.90
8953;DHT22;4511;50.890;8.054;2024-02-04T14:08:03;9.40;99.90
8953;DHT22;4511;50.890;8.054;2024-02-04T14:10:31;9.50;99.90
8953;DHT22;4511;50.890;8.054;2024-02-04T14:12:57;9.40;99.90
8953;DHT22;4511;50.890;8.054;2024-02-04T14:15:24;9.40;99.90
8953;DHT22;4511;50.890;8.054;2024-02-04T14:17:51;9.40;99.90
8953;DHT22;4511;50.890;8.054;2024-02-04T14:20:17;9.40;99.90
8953;DHT22;4511;50.890;8.054;2024-02-04T14:22:44;9.40;99.90
8953;DHT22;4511;50.890;8.054;2024-02-04T14:25:13;9.40;99.90
8953;DHT22;4511;50.890;8.054;2024-02-04T14:27:39;9.40;99.90
8953;DHT22;4511;50.890;8.054;2024-02-04T14:30:07;9.40;99.90
8953;DHT22;4511;50.890;8.054;2024-02-04T14:32:34;9.40;99.90
8953;DHT22;4511;50.890;8.054;2024-02-04T14:35:01;9.30;99.90
8953;DHT22;4511;50.890;8.054;2024-02-04T14:37:29;9.30;99.90
8953;DHT22;4511;50.890;8.054;2024-02-04T14:39:57;9.40;99.90
8953;DHT22;4511;50.890;8.054;2024-02-04T14:42:26;9.40;99.90
8953;DHT22;4511;50.890;8.054;2024-02-04T14:44:53;9.40;99.90
8953;DHT22;4511;50.890;8.054;2024-02-04T14:47:20;9.30;99.90
8953;DHT22;4511;50.890;8.054;2024-02-04T14:49:47;9.40;99.90
8953;DHT22;4511;50.890;8.054;2024-02-04T14:52:14;9.40;99.90
8953;DHT22;4511;50.890;8.054;2024-02-04T14:54:43;9.30;99.90
8953;DHT22;4511;50.890;8.054;2024-02-04T14:57:10;9.30;99.90
8953;DHT22;4511;50.890;8.054;2024-02-04T14:59:39;9.30;99.90
8953;DHT22;4511;50.890;8.054;2024-02-04T15:02:06;9.30;99.90
8953;DHT22;4511;50.890;8.054;2024-02-04T15:04:34;9.30;99.90
8953;DHT22;4511;50.890;8.054;2024-02-04T15:07:00;9.30;99.90
8953;DHT22;4511;50.890;8.054;2024-02-04T15:09:28;9.40;99.90
8953;DHT22;4511;50.890;8.054;2024-02-04T15:11:57;9.40;99.90
8953;DHT22;4511;50.890;8.054;2024-02-04T15:14:25;9.40;99.90
8953;DHT22;4511;50.890;8.054;2024-02-04T15:16:53;9.40;99.90
8953;DHT22;4511;50.890;8.054;2024-02-04T15:19:21;9.40;99.90
8953;DHT22;4511;50.890;8.054;2024-02-04T15:21:48;9.40;99.90
8953;DHT22;4511;50.890;8.054;2024-02-04T15:24:15;9.30;99.90
8953;DHT22;4511;50.890;8.054;2024-02-04T15:26:43;9.30;99.90
8953;DHT22;4511;50.890;8.054;2024-02-04T15:29:13;9.30;99.90
8953;DHT22;4511;50.890;8.054;2024-02-04T15:31:41;9.30;99.90
8953;DHT22;4511;50.890;8.054;2024-02-04T15:34:09;9.30;99.90
8953;DHT22;4511;50.890;8.054;2024-02-04T15:36:36;9.30;99.90
8953;DHT22;4511;50.890;8.054;2024-02-04T15:39:03;9.30;99.90
8953;DHT22;4511;50.890;8.054;2024-02-04T15:41:30;9.20;99.90
8953;DHT22;4511;50.890;8.054;2024-02-04T15:43:57;9.30;99.90
8953;DHT22;4511;50.890;8.054;2024-02-04T15:46:24;9.20;99.90
8953;DHT22;4511;50.890;8.054;2024-02-04T15:48:52;9.20;99.90
8953;DHT22;4511;50.890;8.054;2024-02-04T15:51:21;9.20;99.90
8953;DHT22;4511;50.890;8.054;2024-02-04T15:53:49;9.20;99.90
8953;DHT22;4511;50.890;8.054;2024-02-04T15:56:19;9.20;99.90
8953;DHT22;4511;50.890;8.054;2024-02-04T15:58:47;9.20;99.90
8953;DHT22;4511;50.890;8.054;2024-02-04T16:01:15;9.20;99.90
8953;DHT22;4511;50.890;8.054;2024-02-04T16:03:43;9.20;99.90
8953;DHT22;4511;50.890;8.054;2024-02-04T16:06:11;9.20;99.90
8953;DHT22;4511;50.890;8.054;2024-02-04T16:08:40;9.20;99.90
8953;DHT22;4511;50.890;8.054;2024-02-04T16:11:15;9.20;99.90
8953;DHT22;4511;50.890;8.054;2024-02-04T16:13:44;9.20;99.90
8953;DHT22;4511;50.890;8.054;2024-02-04T16:16:13;9.20;99.90
8953;DHT22;4511;50.890;8.054;2024-02-04T16:18:41;9.20;99.90